Continental Highway — H9LY — position and weather

sailwx.info

Track history (hours):
 
Tides and Currents Weather Stations Pressure Air Temp Water Temp Dewpoint Dewpoint Depression Visibility Wind Speed Wind Dir Waves Ship Positions

Continental Highway

Last reported at 2017-Sep-13 13:36 UTC. Time now 2017-Sep-24 07:07 UTC.
Position N 31°33' W 080°10'.
Warning: this ship's position is 10 days out of date.

Length 199.9 m; beam 32.2 m.

Type: Cargo ship. MMSI: 351223000.

Date/timePositionNaut miles runAvg speedWind from/ knotsBaromVisibWave heightAir tempDewpointWater temp
2017-Sep-13 13:36N 31°33' W 080°10'217.3
2017-Sep-13 13:28N 31°35' W 080°09'817.3
2017-Sep-13 13:00N 31°42' W 080°04'917.4
2017-Sep-13 12:30N 31°49' W 079°59'1117.6
2017-Sep-13 11:53N 31°59' W 079°52'817.8
2017-Sep-13 11:25N 32°06' W 079°47'17117.1
2017-Sep-13 01:26N 33°42' W 076°59'5816.0
2017-Sep-12 21:48N 34°24' W 076°10'11114.8
2017-Sep-12 14:16N 36°03' W 075°08'516.7
2017-Sep-12 13:59N 36°08' W 075°07'816.7
2017-Sep-12 13:30N 36°15' W 075°06'917.0
2017-Sep-12 12:59N 36°24' W 075°03'817.1
2017-Sep-12 12:30N 36°32' W 074°59'5617.2
2017-Sep-12 09:16N 37°20' W 074°25'416.9
2017-Sep-12 09:00N 37°24' W 074°22'816.7
2017-Sep-12 08:30N 37°31' W 074°17'916.9
2017-Sep-12 08:00N 37°39' W 074°12'917.5
2017-Sep-12 07:30N 37°46' W 074°07'917.4
2017-Sep-12 07:00N 37°54' W 074°02'917.4
2017-Sep-12 06:30N 38°02' W 073°57'917.4
2017-Sep-12 06:00N 38°10' W 073°52'917.2
2017-Sep-12 05:30N 38°17' W 073°46'917.6
2017-Sep-12 05:01N 38°24' W 073°40'917.7
2017-Sep-12 04:30N 38°32' W 073°34'918.0
2017-Sep-12 04:00N 38°40' W 073°29'917.6
2017-Sep-12 03:31N 38°47' W 073°23'917.4
2017-Sep-12 02:59N 38°55' W 073°17'817.3
2017-Sep-12 02:30N 39°03' W 073°12'11 1.5
2017-Sep-11 19:02N 39°09' W 072°59'2 8.4
2017-Sep-11 18:47N 39°07' W 073°01'410.9
2017-Sep-11 18:23N 39°05' W 073°06'611.1
2017-Sep-11 17:53N 39°03' W 073°13'1 0.4
2017-Sep-11 14:33N 39°02' W 073°14'0 1.4
2017-Sep-11 14:30N 39°02' W 073°14'1 1.3
2017-Sep-11 13:56N 39°03' W 073°13'1 1.3
2017-Sep-11 13:23N 39°03' W 073°13'1 1.3
2017-Sep-11 12:20N 39°03' W 073°11'1 1.1
2017-Sep-11 11:32N 39°04' W 073°10'0 1.2
2017-Sep-11 11:29N 39°04' W 073°10'1 1.1
2017-Sep-11 10:56N 39°04' W 073°09'0 1.1
2017-Sep-11 10:29N 39°04' W 073°08'3 0.8
2017-Sep-11 06:39N 39°06' W 073°05'44 2.6
2017-Sep-10 13:55N 39°32' W 073°50'712.3
2017-Sep-10 13:20N 39°39' W 073°51'512.3
2017-Sep-10 12:57N 39°43' W 073°51'612.4
2017-Sep-10 12:30N 39°49' W 073°51'612.4
2017-Sep-10 11:59N 39°55' W 073°51'1112.4
2017-Sep-10 11:04N 40°07' W 073°50'212.3
2017-Sep-10 10:55N 40°08' W 073°49'511.8
2017-Sep-10 10:30N 40°13' W 073°49'610.1
2017-Sep-10 09:56N 40°19' W 073°49'510.2
2017-Sep-10 09:26N 40°24' W 073°49'4 8.8
2017-Sep-10 09:00N 40°28' W 073°51'5 9.8
2017-Sep-10 08:30N 40°30' W 073°56'5 9.7
2017-Sep-10 08:00N 40°33' W 074°02'510.1
2017-Sep-10 07:30N 40°38' W 074°03'3 6.1
2017-Sep-10 07:00N 40°39' W 074°07'2 3.4
2017-Sep-10 06:30N 40°40' W 074°08'1 2.7
2017-Sep-10 05:58N 40°41' W 074°08'0 0.0
2017-Sep-10 05:28N 40°41' W 074°08'0 0.0
2017-Sep-10 04:58N 40°41' W 074°08'0 0.0
2017-Sep-10 04:28N 40°41' W 074°08'0 0.0
2017-Sep-10 03:58N 40°41' W 074°08'0 0.0
2017-Sep-10 03:28N 40°41' W 074°08'0 0.0
2017-Sep-10 02:58N 40°41' W 074°08'0 0.0
2017-Sep-10 02:25N 40°41' W 074°08'0 0.0
2017-Sep-10 01:58N 40°41' W 074°08'0 0.0
2017-Sep-10 01:25N 40°41' W 074°08'0 0.0
2017-Sep-10 00:58N 40°41' W 074°08'0 0.0
2017-Sep-10 00:28N 40°41' W 074°08'0 0.0
2017-Sep-09 23:58N 40°41' W 074°08'0 0.0
2017-Sep-09 23:28N 40°41' W 074°08'0 0.0
2017-Sep-09 22:58N 40°41' W 074°08'0 0.0
2017-Sep-09 22:25N 40°41' W 074°08'0 0.0
2017-Sep-09 21:58N 40°41' W 074°08'0 0.0
2017-Sep-09 21:28N 40°41' W 074°08'0 0.0
2017-Sep-09 20:58N 40°41' W 074°08'0 0.0
2017-Sep-09 20:28N 40°41' W 074°08'0 0.0
2017-Sep-09 19:58N 40°41' W 074°08'0 0.0
2017-Sep-09 19:28N 40°41' W 074°08'0 0.0
2017-Sep-09 18:58N 40°41' W 074°08'0 0.0
2017-Sep-09 18:25N 40°41' W 074°08'0 0.0
2017-Sep-09 17:58N 40°41' W 074°08'0 0.0
2017-Sep-09 17:28N 40°41' W 074°08'0 0.0
2017-Sep-09 16:58N 40°41' W 074°08'0 0.0
2017-Sep-09 16:28N 40°41' W 074°08'0 0.0
2017-Sep-09 15:58N 40°41' W 074°08'0 0.0
2017-Sep-09 15:28N 40°41' W 074°08'0 0.0
2017-Sep-09 14:58N 40°41' W 074°08'0 0.0
2017-Sep-09 14:28N 40°41' W 074°08'0 0.0
2017-Sep-09 13:58N 40°41' W 074°08'0 0.0
2017-Sep-09 13:28N 40°41' W 074°08'0 0.0
2017-Sep-09 12:58N 40°41' W 074°08'0 0.0
2017-Sep-09 12:28N 40°41' W 074°08'0 0.0
2017-Sep-09 11:58N 40°41' W 074°08'0 0.0
2017-Sep-09 11:28N 40°41' W 074°08'0 0.0
2017-Sep-09 10:58N 40°41' W 074°08'0 0.0
2017-Sep-09 10:28N 40°41' W 074°08'0 0.0
2017-Sep-09 09:58N 40°41' W 074°08'0 0.0
2017-Sep-09 09:29N 40°41' W 074°08'0 0.0
2017-Sep-09 08:58N 40°41' W 074°08'0 0.0
2017-Sep-09 08:25N 40°41' W 074°08'0 0.0
2017-Sep-09 07:58N 40°41' W 074°08'0 0.0
2017-Sep-09 07:28N 40°41' W 074°08'0 0.0
2017-Sep-09 06:58N 40°41' W 074°08'0 0.0
2017-Sep-09 06:28N 40°41' W 074°08'0 0.0
2017-Sep-09 05:58N 40°41' W 074°08'0 0.0
2017-Sep-09 05:28N 40°41' W 074°08'0 0.0
2017-Sep-09 04:58N 40°41' W 074°08'0 0.0
2017-Sep-09 04:28N 40°41' W 074°08'0 0.0
2017-Sep-09 04:00N 40°41' W 074°08'1 2.9
2017-Sep-09 03:31N 40°40' W 074°08'2 3.4
2017-Sep-09 03:01N 40°39' W 074°07'3 6.2
2017-Sep-09 02:31N 40°38' W 074°03'510.5
2017-Sep-09 02:00N 40°32' W 074°01'510.1
2017-Sep-09 01:30N 40°30' W 073°56'510.3
2017-Sep-09 01:01N 40°27' W 073°50'4 7.2
2017-Sep-09 00:30N 40°24' W 073°47'29 9.9
2017-Sep-08 21:32N 39°55' W 073°43'410.7
2017-Sep-08 21:12N 39°51' W 073°43'310.6
2017-Sep-08 20:56N 39°49' W 073°42'34 1.1
2017-Sep-07 14:26N 39°22' W 073°15'1113.0
2017-Sep-07 13:37N 39°12' W 073°20'316.3
2017-Sep-07 13:27N 39°10' W 073°23'1816.2
2017-Sep-07 12:21N 38°54' W 073°33'516.2
2017-Sep-07 12:00N 38°50' W 073°38'1116.4
2017-Sep-07 11:21N 38°41' W 073°46'1416.0
2017-Sep-07 10:29N 38°30' W 073°56'815.8
2017-Sep-07 10:00N 38°23' W 074°02'916.3
2017-Sep-07 09:25N 38°14' W 074°04'1015.9
2017-Sep-07 08:46N 38°04' W 074°06'715.6
2017-Sep-07 08:21N 37°57' W 074°08'  
Track history (hours):
 
Tides and Currents Weather Stations Pressure Air Temp Water Temp Dewpoint Dewpoint Depression Visibility Wind Speed Wind Dir Waves Ship Positions

Continental Highway

Last reported at 2017-Sep-13 13:36 UTC. Time now 2017-Sep-24 07:07 UTC.
Position N 31°33' W 080°10'.
Warning: this ship's position is 10 days out of date.

Length 199.9 m; beam 32.2 m.

Type: Cargo ship. MMSI: 351223000.

Date/timePositionNaut miles runAvg speedWind from/ knotsBaromVisibWave heightAir tempDewpointWater temp
2017-Sep-13 13:36N 31°33' W 080°10'217.3
2017-Sep-13 13:28N 31°35' W 080°09'817.3
2017-Sep-13 13:00N 31°42' W 080°04'917.4
2017-Sep-13 12:30N 31°49' W 079°59'1117.6
2017-Sep-13 11:53N 31°59' W 079°52'817.8
2017-Sep-13 11:25N 32°06' W 079°47'17117.1
2017-Sep-13 01:26N 33°42' W 076°59'5816.0
2017-Sep-12 21:48N 34°24' W 076°10'11114.8
2017-Sep-12 14:16N 36°03' W 075°08'516.7
2017-Sep-12 13:59N 36°08' W 075°07'816.7
2017-Sep-12 13:30N 36°15' W 075°06'917.0
2017-Sep-12 12:59N 36°24' W 075°03'817.1
2017-Sep-12 12:30N 36°32' W 074°59'5617.2
2017-Sep-12 09:16N 37°20' W 074°25'416.9
2017-Sep-12 09:00N 37°24' W 074°22'816.7
2017-Sep-12 08:30N 37°31' W 074°17'916.9
2017-Sep-12 08:00N 37°39' W 074°12'917.5
2017-Sep-12 07:30N 37°46' W 074°07'917.4
2017-Sep-12 07:00N 37°54' W 074°02'917.4
2017-Sep-12 06:30N 38°02' W 073°57'917.4
2017-Sep-12 06:00N 38°10' W 073°52'917.2
2017-Sep-12 05:30N 38°17' W 073°46'917.6
2017-Sep-12 05:01N 38°24' W 073°40'917.7
2017-Sep-12 04:30N 38°32' W 073°34'918.0
2017-Sep-12 04:00N 38°40' W 073°29'917.6
2017-Sep-12 03:31N 38°47' W 073°23'917.4
2017-Sep-12 02:59N 38°55' W 073°17'817.3
2017-Sep-12 02:30N 39°03' W 073°12'11 1.5
2017-Sep-11 19:02N 39°09' W 072°59'2 8.4
2017-Sep-11 18:47N 39°07' W 073°01'410.9
2017-Sep-11 18:23N 39°05' W 073°06'611.1
2017-Sep-11 17:53N 39°03' W 073°13'1 0.4
2017-Sep-11 14:33N 39°02' W 073°14'0 1.4
2017-Sep-11 14:30N 39°02' W 073°14'1 1.3
2017-Sep-11 13:56N 39°03' W 073°13'1 1.3
2017-Sep-11 13:23N 39°03' W 073°13'1 1.3
2017-Sep-11 12:20N 39°03' W 073°11'1 1.1
2017-Sep-11 11:32N 39°04' W 073°10'0 1.2
2017-Sep-11 11:29N 39°04' W 073°10'1 1.1
2017-Sep-11 10:56N 39°04' W 073°09'0 1.1
2017-Sep-11 10:29N 39°04' W 073°08'3 0.8
2017-Sep-11 06:39N 39°06' W 073°05'44 2.6
2017-Sep-10 13:55N 39°32' W 073°50'712.3
2017-Sep-10 13:20N 39°39' W 073°51'512.3
2017-Sep-10 12:57N 39°43' W 073°51'612.4
2017-Sep-10 12:30N 39°49' W 073°51'612.4
2017-Sep-10 11:59N 39°55' W 073°51'1112.4
2017-Sep-10 11:04N 40°07' W 073°50'212.3
2017-Sep-10 10:55N 40°08' W 073°49'511.8
2017-Sep-10 10:30N 40°13' W 073°49'610.1
2017-Sep-10 09:56N 40°19' W 073°49'510.2
2017-Sep-10 09:26N 40°24' W 073°49'4 8.8
2017-Sep-10 09:00N 40°28' W 073°51'5 9.8
2017-Sep-10 08:30N 40°30' W 073°56'5 9.7
2017-Sep-10 08:00N 40°33' W 074°02'510.1
2017-Sep-10 07:30N 40°38' W 074°03'3 6.1
2017-Sep-10 07:00N 40°39' W 074°07'2 3.4
2017-Sep-10 06:30N 40°40' W 074°08'1 2.7
2017-Sep-10 05:58N 40°41' W 074°08'0 0.0
2017-Sep-10 05:28N 40°41' W 074°08'0 0.0
2017-Sep-10 04:58N 40°41' W 074°08'0 0.0
2017-Sep-10 04:28N 40°41' W 074°08'0 0.0
2017-Sep-10 03:58N 40°41' W 074°08'0 0.0
2017-Sep-10 03:28N 40°41' W 074°08'0 0.0
2017-Sep-10 02:58N 40°41' W 074°08'0 0.0
2017-Sep-10 02:25N 40°41' W 074°08'0 0.0
2017-Sep-10 01:58N 40°41' W 074°08'0 0.0
2017-Sep-10 01:25N 40°41' W 074°08'0 0.0
2017-Sep-10 00:58N 40°41' W 074°08'0 0.0
2017-Sep-10 00:28N 40°41' W 074°08'0 0.0
2017-Sep-09 23:58N 40°41' W 074°08'0 0.0
2017-Sep-09 23:28N 40°41' W 074°08'0 0.0
2017-Sep-09 22:58N 40°41' W 074°08'0 0.0
2017-Sep-09 22:25N 40°41' W 074°08'0 0.0
2017-Sep-09 21:58N 40°41' W 074°08'0 0.0
2017-Sep-09 21:28N 40°41' W 074°08'0 0.0
2017-Sep-09 20:58N 40°41' W 074°08'0 0.0
2017-Sep-09 20:28N 40°41' W 074°08'0 0.0
2017-Sep-09 19:58N 40°41' W 074°08'0 0.0
2017-Sep-09 19:28N 40°41' W 074°08'0 0.0
2017-Sep-09 18:58N 40°41' W 074°08'0 0.0
2017-Sep-09 18:25N 40°41' W 074°08'0 0.0
2017-Sep-09 17:58N 40°41' W 074°08'0 0.0
2017-Sep-09 17:28N 40°41' W 074°08'0 0.0
2017-Sep-09 16:58N 40°41' W 074°08'0 0.0
2017-Sep-09 16:28N 40°41' W 074°08'0 0.0
2017-Sep-09 15:58N 40°41' W 074°08'0 0.0
2017-Sep-09 15:28N 40°41' W 074°08'0 0.0
2017-Sep-09 14:58N 40°41' W 074°08'0 0.0
2017-Sep-09 14:28N 40°41' W 074°08'0 0.0
2017-Sep-09 13:58N 40°41' W 074°08'0 0.0
2017-Sep-09 13:28N 40°41' W 074°08'0 0.0
2017-Sep-09 12:58N 40°41' W 074°08'0 0.0
2017-Sep-09 12:28N 40°41' W 074°08'0 0.0
2017-Sep-09 11:58N 40°41' W 074°08'0 0.0
2017-Sep-09 11:28N 40°41' W 074°08'0 0.0
2017-Sep-09 10:58N 40°41' W 074°08'0 0.0
2017-Sep-09 10:28N 40°41' W 074°08'0 0.0
2017-Sep-09 09:58N 40°41' W 074°08'0 0.0
2017-Sep-09 09:29N 40°41' W 074°08'0 0.0
2017-Sep-09 08:58N 40°41' W 074°08'0 0.0
2017-Sep-09 08:25N 40°41' W 074°08'0 0.0
2017-Sep-09 07:58N 40°41' W 074°08'0 0.0
2017-Sep-09 07:28N 40°41' W 074°08'0 0.0
2017-Sep-09 06:58N 40°41' W 074°08'0 0.0
2017-Sep-09 06:28N 40°41' W 074°08'0 0.0
2017-Sep-09 05:58N 40°41' W 074°08'0 0.0
2017-Sep-09 05:28N 40°41' W 074°08'0 0.0
2017-Sep-09 04:58N 40°41' W 074°08'0 0.0
2017-Sep-09 04:28N 40°41' W 074°08'0 0.0
2017-Sep-09 04:00N 40°41' W 074°08'1 2.9
2017-Sep-09 03:31N 40°40' W 074°08'2 3.4
2017-Sep-09 03:01N 40°39' W 074°07'3 6.2
2017-Sep-09 02:31N 40°38' W 074°03'510.5
2017-Sep-09 02:00N 40°32' W 074°01'510.1
2017-Sep-09 01:30N 40°30' W 073°56'510.3
2017-Sep-09 01:01N 40°27' W 073°50'4 7.2
2017-Sep-09 00:30N 40°24' W 073°47'29 9.9
2017-Sep-08 21:32N 39°55' W 073°43'410.7
2017-Sep-08 21:12N 39°51' W 073°43'310.6
2017-Sep-08 20:56N 39°49' W 073°42'34 1.1
2017-Sep-07 14:26N 39°22' W 073°15'1113.0
2017-Sep-07 13:37N 39°12' W 073°20'316.3
2017-Sep-07 13:27N 39°10' W 073°23'1816.2
2017-Sep-07 12:21N 38°54' W 073°33'516.2
2017-Sep-07 12:00N 38°50' W 073°38'1116.4
2017-Sep-07 11:21N 38°41' W 073°46'1416.0
2017-Sep-07 10:29N 38°30' W 073°56'815.8
2017-Sep-07 10:00N 38°23' W 074°02'916.3
2017-Sep-07 09:25N 38°14' W 074°04'1015.9
2017-Sep-07 08:46N 38°04' W 074°06'715.6
2017-Sep-07 08:21N 37°57' W 074°08'  

Dump ship's entire track history